KNQA/NQA METAR and TAF weather

Enter ICAO airport designator
Station Type Date Time Source
KNQA METAR 2020/09/26 23:55 UTC NOAA

KNQA 262355Z AUTO 13004KT 10SM BKN035 21/18 A2992 RMK A01


Station Type Date Time Source
KNQA Decoded METAR 2020/09/26 23:55 UTC NOAA

Millington, Millington Municipal Airport, TN, United States (KNQA) 35-21-24N 089-52-13W
Sep 26, 2020 - 07:55 PM EDT / 2020.09.26 2355 UTC
Wind: from the SE (130 degrees) at 5 MPH (4 KT):0
Visibility: 10 mile(s):0
Sky conditions: mostly cloudy
Temperature: 69 F (21 C)
Dew Point: 64 F (18 C)
Relative Humidity: 82%
Pressure (altimeter): 29.92 in. Hg (1013 hPa)
ob: KNQA 262355Z AUTO 13004KT 10SM BKN035 21/18 A2992 RMK A01
cycle: 0

Station Type Date Time Source
KNQA TAF UTC NOAA

Error!

Example: see airport list